sensor_id;sensor_type;location;lat;lon;timestamp;P1;durP1;ratioP1;P2;durP2;ratioP2
74833;SDS011;63361;52.384;20.930;2023-06-22T00:01:08;46.80;;;32.50;;
74833;SDS011;63361;52.384;20.930;2023-06-22T00:03:33;46.80;;;32.17;;
74833;SDS011;63361;52.384;20.930;2023-06-22T00:05:58;50.53;;;35.70;;
74833;SDS011;63361;52.384;20.930;2023-06-22T00:08:23;45.70;;;30.97;;
74833;SDS011;63361;52.384;20.930;2023-06-22T00:10:48;45.27;;;31.20;;
74833;SDS011;63361;52.384;20.930;2023-06-22T00:13:14;43.23;;;31.43;;
74833;SDS011;63361;52.384;20.930;2023-06-22T00:15:40;40.85;;;29.60;;
74833;SDS011;63361;52.384;20.930;2023-06-22T00:18:06;47.35;;;32.90;;
74833;SDS011;63361;52.384;20.930;2023-06-22T00:20:31;52.10;;;33.80;;
74833;SDS011;63361;52.384;20.930;2023-06-22T00:22:57;50.97;;;33.90;;
74833;SDS011;63361;52.384;20.930;2023-06-22T00:25:23;52.47;;;34.50;;
74833;SDS011;63361;52.384;20.930;2023-06-22T00:27:48;47.07;;;32.13;;
74833;SDS011;63361;52.384;20.930;2023-06-22T00:30:14;52.25;;;32.45;;
74833;SDS011;63361;52.384;20.930;2023-06-22T00:32:40;56.73;;;35.90;;
74833;SDS011;63361;52.384;20.930;2023-06-22T00:35:05;67.83;;;38.30;;
74833;SDS011;63361;52.384;20.930;2023-06-22T00:37:30;61.72;;;37.35;;
74833;SDS011;63361;52.384;20.930;2023-06-22T00:39:55;74.33;;;41.80;;
74833;SDS011;63361;52.384;20.930;2023-06-22T00:42:21;66.50;;;38.03;;
74833;SDS011;63361;52.384;20.930;2023-06-22T00:44:46;69.03;;;39.53;;
74833;SDS011;63361;52.384;20.930;2023-06-22T00:47:13;68.00;;;40.00;;
74833;SDS011;63361;52.384;20.930;2023-06-22T00:49:39;72.47;;;40.58;;
74833;SDS011;63361;52.384;20.930;2023-06-22T00:52:04;78.53;;;43.40;;
74833;SDS011;63361;52.384;20.930;2023-06-22T00:54:34;61.88;;;36.97;;
74833;SDS011;63361;52.384;20.930;2023-06-22T00:56:59;69.18;;;38.60;;
74833;SDS011;63361;52.384;20.930;2023-06-22T00:59:25;76.10;;;40.47;;
74833;SDS011;63361;52.384;20.930;2023-06-22T01:01:51;81.82;;;43.25;;
74833;SDS011;63361;52.384;20.930;2023-06-22T01:04:16;86.27;;;45.20;;
74833;SDS011;63361;52.384;20.930;2023-06-22T01:06:45;106.87;;;49.50;;
74833;SDS011;63361;52.384;20.930;2023-06-22T01:09:14;109.22;;;51.22;;
74833;SDS011;63361;52.384;20.930;2023-06-22T01:11:48;108.93;;;51.53;;
74833;SDS011;63361;52.384;20.930;2023-06-22T01:14:27;93.38;;;46.10;;
74833;SDS011;63361;52.384;20.930;2023-06-22T01:16:53;96.65;;;47.35;;
74833;SDS011;63361;52.384;20.930;2023-06-22T01:22:04;91.50;;;43.03;;
74833;SDS011;63361;52.384;20.930;2023-06-22T01:24:32;79.27;;;41.93;;
74833;SDS011;63361;52.384;20.930;2023-06-22T01:29:26;65.97;;;38.27;;
74833;SDS011;63361;52.384;20.930;2023-06-22T01:31:52;65.30;;;38.88;;
74833;SDS011;63361;52.384;20.930;2023-06-22T01:34:18;72.65;;;40.42;;
74833;SDS011;63361;52.384;20.930;2023-06-22T01:36:43;75.23;;;40.27;;
74833;SDS011;63361;52.384;20.930;2023-06-22T01:39:09;65.30;;;38.77;;
74833;SDS011;63361;52.384;20.930;2023-06-22T01:41:35;71.97;;;40.73;;
74833;SDS011;63361;52.384;20.930;2023-06-22T01:44:00;74.68;;;42.15;;
74833;SDS011;63361;52.384;20.930;2023-06-22T01:46:26;75.53;;;42.67;;
74833;SDS011;63361;52.384;20.930;2023-06-22T01:48:51;71.90;;;41.47;;
74833;SDS011;63361;52.384;20.930;2023-06-22T01:51:17;88.55;;;45.35;;
74833;SDS011;63361;52.384;20.930;2023-06-22T01:53:42;86.20;;;46.47;;
74833;SDS011;63361;52.384;20.930;2023-06-22T01:56:08;88.60;;;45.10;;
74833;SDS011;63361;52.384;20.930;2023-06-22T01:58:33;89.03;;;45.90;;
74833;SDS011;63361;52.384;20.930;2023-06-22T02:01:11;105.30;;;50.95;;
74833;SDS011;63361;52.384;20.930;2023-06-22T02:03:38;99.45;;;49.15;;
74833;SDS011;63361;52.384;20.930;2023-06-22T02:06:06;87.93;;;44.40;;
74833;SDS011;63361;52.384;20.930;2023-06-22T02:08:46;79.65;;;43.17;;
74833;SDS011;63361;52.384;20.930;2023-06-22T02:11:12;87.43;;;44.70;;
74833;SDS011;63361;52.384;20.930;2023-06-22T02:13:38;83.47;;;44.50;;
74833;SDS011;63361;52.384;20.930;2023-06-22T02:16:07;88.68;;;47.03;;
74833;SDS011;63361;52.384;20.930;2023-06-22T02:18:33;91.97;;;47.93;;
74833;SDS011;63361;52.384;20.930;2023-06-22T02:21:00;92.78;;;47.92;;
74833;SDS011;63361;52.384;20.930;2023-06-22T02:23:25;98.97;;;49.20;;
74833;SDS011;63361;52.384;20.930;2023-06-22T02:25:51;98.33;;;48.87;;
74833;SDS011;63361;52.384;20.930;2023-06-22T02:28:16;93.10;;;49.37;;
74833;SDS011;63361;52.384;20.930;2023-06-22T02:30:41;88.33;;;49.70;;
74833;SDS011;63361;52.384;20.930;2023-06-22T02:33:06;92.07;;;50.60;;
74833;SDS011;63361;52.384;20.930;2023-06-22T02:35:31;89.00;;;50.23;;
74833;SDS011;63361;52.384;20.930;2023-06-22T02:38:00;78.63;;;49.07;;
74833;SDS011;63361;52.384;20.930;2023-06-22T02:40:25;83.22;;;49.28;;
74833;SDS011;63361;52.384;20.930;2023-06-22T02:42:51;79.70;;;48.00;;
74833;SDS011;63361;52.384;20.930;2023-06-22T02:45:16;71.53;;;47.13;;
74833;SDS011;63361;52.384;20.930;2023-06-22T02:47:41;76.63;;;47.00;;
74833;SDS011;63361;52.384;20.930;2023-06-22T02:50:06;70.00;;;47.10;;
74833;SDS011;63361;52.384;20.930;2023-06-22T02:52:32;68.77;;;45.73;;
74833;SDS011;63361;52.384;20.930;2023-06-22T02:54:57;67.83;;;46.03;;
74833;SDS011;63361;52.384;20.930;2023-06-22T02:57:22;71.23;;;46.07;;
74833;SDS011;63361;52.384;20.930;2023-06-22T02:59:47;69.13;;;45.60;;
74833;SDS011;63361;52.384;20.930;2023-06-22T03:02:12;64.00;;;45.70;;
74833;SDS011;63361;52.384;20.930;2023-06-22T03:04:38;65.33;;;45.87;;
74833;SDS011;63361;52.384;20.930;2023-06-22T03:07:03;62.70;;;46.23;;
74833;SDS011;63361;52.384;20.930;2023-06-22T03:09:28;57.90;;;43.07;;
74833;SDS011;63361;52.384;20.930;2023-06-22T03:11:54;62.80;;;44.50;;
74833;SDS011;63361;52.384;20.930;2023-06-22T03:14:19;61.10;;;43.00;;
74833;SDS011;63361;52.384;20.930;2023-06-22T03:16:44;58.70;;;42.20;;
74833;SDS011;63361;52.384;20.930;2023-06-22T03:19:09;54.93;;;41.27;;
74833;SDS011;63361;52.384;20.930;2023-06-22T03:21:35;58.33;;;40.80;;
74833;SDS011;63361;52.384;20.930;2023-06-22T03:24:00;57.30;;;42.03;;
74833;SDS011;63361;52.384;20.930;2023-06-22T03:26:25;54.97;;;40.87;;
74833;SDS011;63361;52.384;20.930;2023-06-22T03:28:51;56.13;;;39.92;;
74833;SDS011;63361;52.384;20.930;2023-06-22T03:31:17;53.13;;;38.53;;
74833;SDS011;63361;52.384;20.930;2023-06-22T03:33:46;56.77;;;39.97;;
74833;SDS011;63361;52.384;20.930;2023-06-22T03:36:11;54.37;;;39.13;;
74833;SDS011;63361;52.384;20.930;2023-06-22T03:38:36;54.10;;;38.77;;
74833;SDS011;63361;52.384;20.930;2023-06-22T03:41:01;51.67;;;37.20;;
74833;SDS011;63361;52.384;20.930;2023-06-22T03:43:27;49.87;;;36.83;;
74833;SDS011;63361;52.384;20.930;2023-06-22T03:45:52;49.93;;;35.10;;
74833;SDS011;63361;52.384;20.930;2023-06-22T03:48:17;48.20;;;34.57;;
74833;SDS011;63361;52.384;20.930;2023-06-22T03:50:42;45.30;;;34.30;;
74833;SDS011;63361;52.384;20.930;2023-06-22T03:53:09;43.37;;;32.73;;
74833;SDS011;63361;52.384;20.930;2023-06-22T03:55:34;42.77;;;31.47;;
74833;SDS011;63361;52.384;20.930;2023-06-22T03:57:59;37.72;;;30.42;;
74833;SDS011;63361;52.384;20.930;2023-06-22T04:00:30;43.03;;;29.23;;
74833;SDS011;63361;52.384;20.930;2023-06-22T04:02:56;36.93;;;28.07;;
74833;SDS011;63361;52.384;20.930;2023-06-22T04:05:21;38.30;;;29.17;;
74833;SDS011;63361;52.384;20.930;2023-06-22T04:07:46;37.97;;;29.97;;
74833;SDS011;63361;52.384;20.930;2023-06-22T04:10:11;35.30;;;26.23;;
74833;SDS011;63361;52.384;20.930;2023-06-22T04:12:38;35.80;;;25.75;;
74833;SDS011;63361;52.384;20.930;2023-06-22T04:15:03;33.97;;;24.93;;
74833;SDS011;63361;52.384;20.930;2023-06-22T04:17:28;36.40;;;24.43;;
74833;SDS011;63361;52.384;20.930;2023-06-22T04:19:53;28.90;;;23.10;;
74833;SDS011;63361;52.384;20.930;2023-06-22T04:22:18;29.57;;;23.23;;
74833;SDS011;63361;52.384;20.930;2023-06-22T04:24:44;30.63;;;22.93;;
74833;SDS011;63361;52.384;20.930;2023-06-22T04:27:09;26.13;;;22.07;;
74833;SDS011;63361;52.384;20.930;2023-06-22T04:29:35;27.08;;;22.05;;
74833;SDS011;63361;52.384;20.930;2023-06-22T04:32:00;28.07;;;21.97;;
74833;SDS011;63361;52.384;20.930;2023-06-22T04:34:28;29.50;;;22.03;;
74833;SDS011;63361;52.384;20.930;2023-06-22T04:36:53;29.80;;;23.10;;
74833;SDS011;63361;52.384;20.930;2023-06-22T04:39:19;27.37;;;21.37;;
74833;SDS011;63361;52.384;20.930;2023-06-22T04:41:44;26.97;;;20.70;;
74833;SDS011;63361;52.384;20.930;2023-06-22T04:46:35;25.13;;;21.23;;
74833;SDS011;63361;52.384;20.930;2023-06-22T04:49:03;29.57;;;20.53;;
74833;SDS011;63361;52.384;20.930;2023-06-22T04:51:31;28.00;;;20.67;;
74833;SDS011;63361;52.384;20.930;2023-06-22T04:53:56;27.73;;;20.27;;
74833;SDS011;63361;52.384;20.930;2023-06-22T04:56:25;26.30;;;20.40;;
74833;SDS011;63361;52.384;20.930;2023-06-22T04:58:53;26.20;;;20.33;;
74833;SDS011;63361;52.384;20.930;2023-06-22T05:01:22;26.63;;;19.85;;
74833;SDS011;63361;52.384;20.930;2023-06-22T05:03:47;26.83;;;20.00;;
74833;SDS011;63361;52.384;20.930;2023-06-22T05:06:13;28.47;;;18.70;;
74833;SDS011;63361;52.384;20.930;2023-06-22T05:08:39;26.52;;;18.90;;
74833;SDS011;63361;52.384;20.930;2023-06-22T05:11:04;24.57;;;18.70;;
74833;SDS011;63361;52.384;20.930;2023-06-22T05:13:30;24.77;;;18.10;;
74833;SDS011;63361;52.384;20.930;2023-06-22T05:15:55;24.07;;;17.40;;
74833;SDS011;63361;52.384;20.930;2023-06-22T05:18:26;23.75;;;17.63;;
74833;SDS011;63361;52.384;20.930;2023-06-22T05:20:51;21.95;;;16.33;;
74833;SDS011;63361;52.384;20.930;2023-06-22T05:23:17;23.13;;;17.47;;
74833;SDS011;63361;52.384;20.930;2023-06-22T05:25:42;23.47;;;17.53;;
74833;SDS011;63361;52.384;20.930;2023-06-22T05:28:07;23.57;;;16.80;;
74833;SDS011;63361;52.384;20.930;2023-06-22T05:30:36;22.52;;;16.38;;
74833;SDS011;63361;52.384;20.930;2023-06-22T05:33:01;25.67;;;16.60;;
74833;SDS011;63361;52.384;20.930;2023-06-22T05:35:26;21.17;;;15.80;;
74833;SDS011;63361;52.384;20.930;2023-06-22T05:37:51;22.47;;;16.33;;
74833;SDS011;63361;52.384;20.930;2023-06-22T05:40:17;23.47;;;16.67;;
74833;SDS011;63361;52.384;20.930;2023-06-22T05:42:42;21.00;;;16.03;;
74833;SDS011;63361;52.384;20.930;2023-06-22T05:45:07;22.03;;;16.00;;
74833;SDS011;63361;52.384;20.930;2023-06-22T05:47:32;22.30;;;15.67;;
74833;SDS011;63361;52.384;20.930;2023-06-22T05:49:58;21.77;;;15.40;;
74833;SDS011;63361;52.384;20.930;2023-06-22T05:52:23;19.47;;;14.10;;
74833;SDS011;63361;52.384;20.930;2023-06-22T05:54:48;20.47;;;14.87;;
74833;SDS011;63361;52.384;20.930;2023-06-22T05:57:13;18.80;;;13.87;;
74833;SDS011;63361;52.384;20.930;2023-06-22T05:59:38;19.85;;;13.35;;
74833;SDS011;63361;52.384;20.930;2023-06-22T06:02:04;17.60;;;14.03;;
74833;SDS011;63361;52.384;20.930;2023-06-22T06:04:29;15.57;;;13.07;;
74833;SDS011;63361;52.384;20.930;2023-06-22T06:06:55;17.27;;;13.80;;
74833;SDS011;63361;52.384;20.930;2023-06-22T06:09:20;18.43;;;12.97;;
74833;SDS011;63361;52.384;20.930;2023-06-22T06:11:45;18.17;;;13.43;;
74833;SDS011;63361;52.384;20.930;2023-06-22T06:14:10;18.37;;;12.80;;
74833;SDS011;63361;52.384;20.930;2023-06-22T06:16:36;17.37;;;13.13;;
74833;SDS011;63361;52.384;20.930;2023-06-22T06:19:01;18.23;;;13.07;;
74833;SDS011;63361;52.384;20.930;2023-06-22T06:21:26;16.50;;;12.13;;
74833;SDS011;63361;52.384;20.930;2023-06-22T06:23:51;16.27;;;12.17;;
74833;SDS011;63361;52.384;20.930;2023-06-22T06:26:18;15.90;;;11.30;;
74833;SDS011;63361;52.384;20.930;2023-06-22T06:28:47;14.57;;;10.40;;
74833;SDS011;63361;52.384;20.930;2023-06-22T06:31:12;12.93;;;10.20;;
74833;SDS011;63361;52.384;20.930;2023-06-22T06:33:42;14.40;;;10.70;;
74833;SDS011;63361;52.384;20.930;2023-06-22T06:36:07;18.80;;;11.20;;
74833;SDS011;63361;52.384;20.930;2023-06-22T06:38:33;14.90;;;10.60;;
74833;SDS011;63361;52.384;20.930;2023-06-22T06:40:58;14.33;;;10.50;;
74833;SDS011;63361;52.384;20.930;2023-06-22T06:43:24;13.20;;;10.17;;
74833;SDS011;63361;52.384;20.930;2023-06-22T06:45:49;12.38;;;9.82;;
74833;SDS011;63361;52.384;20.930;2023-06-22T06:48:14;14.50;;;9.57;;
74833;SDS011;63361;52.384;20.930;2023-06-22T06:50:40;12.37;;;8.87;;
74833;SDS011;63361;52.384;20.930;2023-06-22T06:53:05;10.50;;;8.70;;
74833;SDS011;63361;52.384;20.930;2023-06-22T06:55:31;14.57;;;8.77;;
74833;SDS011;63361;52.384;20.930;2023-06-22T06:57:58;11.23;;;8.73;;
74833;SDS011;63361;52.384;20.930;2023-06-22T07:00:24;11.52;;;8.50;;
74833;SDS011;63361;52.384;20.930;2023-06-22T07:02:50;11.93;;;8.30;;
74833;SDS011;63361;52.384;20.930;2023-06-22T07:05:15;13.83;;;8.20;;
74833;SDS011;63361;52.384;20.930;2023-06-22T07:07:40;11.57;;;8.27;;
74833;SDS011;63361;52.384;20.930;2023-06-22T07:10:06;11.35;;;7.45;;
74833;SDS011;63361;52.384;20.930;2023-06-22T07:12:32;11.07;;;7.40;;
74833;SDS011;63361;52.384;20.930;2023-06-22T07:15:03;11.83;;;6.60;;
74833;SDS011;63361;52.384;20.930;2023-06-22T07:17:29;11.48;;;6.63;;
74833;SDS011;63361;52.384;20.930;2023-06-22T07:19:54;11.10;;;6.73;;
74833;SDS011;63361;52.384;20.930;2023-06-22T07:22:19;9.50;;;6.27;;
74833;SDS011;63361;52.384;20.930;2023-06-22T07:24:44;8.63;;;6.40;;
74833;SDS011;63361;52.384;20.930;2023-06-22T07:27:10;11.40;;;6.30;;
74833;SDS011;63361;52.384;20.930;2023-06-22T07:29:37;11.10;;;5.80;;
74833;SDS011;63361;52.384;20.930;2023-06-22T07:32:04;10.52;;;5.32;;
74833;SDS011;63361;52.384;20.930;2023-06-22T07:34:30;8.00;;;4.97;;
74833;SDS011;63361;52.384;20.930;2023-06-22T07:36:55;8.43;;;4.20;;
74833;SDS011;63361;52.384;20.930;2023-06-22T07:39:20;7.77;;;4.57;;
74833;SDS011;63361;52.384;20.930;2023-06-22T07:41:50;7.28;;;4.18;;
74833;SDS011;63361;52.384;20.930;2023-06-22T07:44:16;8.50;;;4.17;;
74833;SDS011;63361;52.384;20.930;2023-06-22T07:46:41;8.53;;;4.43;;
74833;SDS011;63361;52.384;20.930;2023-06-22T07:49:06;12.20;;;4.30;;
74833;SDS011;63361;52.384;20.930;2023-06-22T07:51:33;7.60;;;3.78;;
74833;SDS011;63361;52.384;20.930;2023-06-22T07:53:58;7.00;;;3.70;;
74833;SDS011;63361;52.384;20.930;2023-06-22T07:56:23;8.43;;;4.10;;
74833;SDS011;63361;52.384;20.930;2023-06-22T07:58:48;7.83;;;3.93;;
74833;SDS011;63361;52.384;20.930;2023-06-22T08:01:14;8.50;;;3.77;;
74833;SDS011;63361;52.384;20.930;2023-06-22T08:03:39;7.35;;;3.80;;
74833;SDS011;63361;52.384;20.930;2023-06-22T08:06:05;6.00;;;3.80;;
74833;SDS011;63361;52.384;20.930;2023-06-22T08:08:30;9.07;;;3.67;;
74833;SDS011;63361;52.384;20.930;2023-06-22T08:10:55;6.53;;;3.37;;
74833;SDS011;63361;52.384;20.930;2023-06-22T08:13:21;8.10;;;3.73;;
74833;SDS011;63361;52.384;20.930;2023-06-22T08:15:46;6.85;;;3.40;;
74833;SDS011;63361;52.384;20.930;2023-06-22T08:18:11;7.60;;;3.27;;
74833;SDS011;63361;52.384;20.930;2023-06-22T08:20:36;6.77;;;3.27;;
74833;SDS011;63361;52.384;20.930;2023-06-22T08:23:02;7.33;;;3.20;;
74833;SDS011;63361;52.384;20.930;2023-06-22T08:25:31;6.47;;;2.93;;
74833;SDS011;63361;52.384;20.930;2023-06-22T08:27:56;5.65;;;2.80;;
74833;SDS011;63361;52.384;20.930;2023-06-22T08:30:22;8.30;;;2.80;;
74833;SDS011;63361;52.384;20.930;2023-06-22T08:32:47;6.20;;;2.43;;
74833;SDS011;63361;52.384;20.930;2023-06-22T08:35:12;5.10;;;2.40;;
74833;SDS011;63361;52.384;20.930;2023-06-22T08:37:37;5.77;;;2.30;;
74833;SDS011;63361;52.384;20.930;2023-06-22T08:40:04;6.22;;;2.80;;
74833;SDS011;63361;52.384;20.930;2023-06-22T08:42:30;4.75;;;2.50;;
74833;SDS011;63361;52.384;20.930;2023-06-22T08:44:56;8.57;;;2.33;;
74833;SDS011;63361;52.384;20.930;2023-06-22T08:47:21;4.93;;;2.63;;
74833;SDS011;63361;52.384;20.930;2023-06-22T08:49:47;7.03;;;2.60;;
74833;SDS011;63361;52.384;20.930;2023-06-22T08:52:13;5.27;;;2.37;;
74833;SDS011;63361;52.384;20.930;2023-06-22T08:54:38;8.73;;;2.40;;
74833;SDS011;63361;52.384;20.930;2023-06-22T08:57:03;5.70;;;2.50;;
74833;SDS011;63361;52.384;20.930;2023-06-22T08:59:28;5.37;;;2.90;;
74833;SDS011;63361;52.384;20.930;2023-06-22T09:01:54;7.63;;;3.00;;
74833;SDS011;63361;52.384;20.930;2023-06-22T09:04:19;7.03;;;2.90;;
74833;SDS011;63361;52.384;20.930;2023-06-22T09:06:47;5.03;;;2.97;;
74833;SDS011;63361;52.384;20.930;2023-06-22T09:09:12;6.23;;;2.90;;
74833;SDS011;63361;52.384;20.930;2023-06-22T09:11:38;8.02;;;3.50;;
74833;SDS011;63361;52.384;20.930;2023-06-22T09:14:03;7.37;;;3.43;;
74833;SDS011;63361;52.384;20.930;2023-06-22T09:16:28;6.10;;;3.40;;
74833;SDS011;63361;52.384;20.930;2023-06-22T09:18:54;6.73;;;3.40;;
74833;SDS011;63361;52.384;20.930;2023-06-22T09:21:19;6.57;;;3.37;;
74833;SDS011;63361;52.384;20.930;2023-06-22T09:23:44;7.57;;;3.30;;
74833;SDS011;63361;52.384;20.930;2023-06-22T09:26:11;6.43;;;3.22;;
74833;SDS011;63361;52.384;20.930;2023-06-22T09:28:37;10.25;;;3.50;;
74833;SDS011;63361;52.384;20.930;2023-06-22T09:31:02;5.63;;;3.10;;
74833;SDS011;63361;52.384;20.930;2023-06-22T09:33:27;5.70;;;3.50;;
74833;SDS011;63361;52.384;20.930;2023-06-22T09:35:53;6.77;;;3.50;;
74833;SDS011;63361;52.384;20.930;2023-06-22T09:38:18;6.70;;;3.40;;
74833;SDS011;63361;52.384;20.930;2023-06-22T09:40:43;6.17;;;3.40;;
74833;SDS011;63361;52.384;20.930;2023-06-22T09:43:08;6.23;;;3.10;;
74833;SDS011;63361;52.384;20.930;2023-06-22T09:45:33;6.13;;;3.20;;
74833;SDS011;63361;52.384;20.930;2023-06-22T09:47:59;7.27;;;3.17;;
74833;SDS011;63361;52.384;20.930;2023-06-22T09:50:24;6.47;;;3.20;;
74833;SDS011;63361;52.384;20.930;2023-06-22T09:52:49;6.37;;;3.57;;
74833;SDS011;63361;52.384;20.930;2023-06-22T09:55:19;8.55;;;3.67;;
74833;SDS011;63361;52.384;20.930;2023-06-22T09:57:44;6.87;;;3.50;;
74833;SDS011;63361;52.384;20.930;2023-06-22T10:00:10;6.20;;;3.80;;
74833;SDS011;63361;52.384;20.930;2023-06-22T10:02:38;6.53;;;3.50;;
74833;SDS011;63361;52.384;20.930;2023-06-22T10:05:03;5.20;;;3.20;;
74833;SDS011;63361;52.384;20.930;2023-06-22T10:07:29;5.70;;;3.70;;
74833;SDS011;63361;52.384;20.930;2023-06-22T10:09:54;7.33;;;3.63;;
74833;SDS011;63361;52.384;20.930;2023-06-22T10:12:19;6.80;;;3.55;;
74833;SDS011;63361;52.384;20.930;2023-06-22T10:14:44;5.80;;;3.50;;
74833;SDS011;63361;52.384;20.930;2023-06-22T10:17:09;5.37;;;3.43;;
74833;SDS011;63361;52.384;20.930;2023-06-22T10:19:35;6.30;;;3.73;;
74833;SDS011;63361;52.384;20.930;2023-06-22T10:22:03;8.07;;;3.67;;
74833;SDS011;63361;52.384;20.930;2023-06-22T10:24:28;6.47;;;3.60;;
74833;SDS011;63361;52.384;20.930;2023-06-22T10:26:53;6.93;;;3.63;;
74833;SDS011;63361;52.384;20.930;2023-06-22T10:29:18;7.80;;;3.83;;
74833;SDS011;63361;52.384;20.930;2023-06-22T10:31:43;6.40;;;3.90;;
74833;SDS011;63361;52.384;20.930;2023-06-22T10:34:09;5.60;;;3.43;;
74833;SDS011;63361;52.384;20.930;2023-06-22T10:36:34;5.63;;;3.50;;
74833;SDS011;63361;52.384;20.930;2023-06-22T10:38:59;8.00;;;3.80;;
74833;SDS011;63361;52.384;20.930;2023-06-22T10:41:26;5.88;;;3.80;;
74833;SDS011;63361;52.384;20.930;2023-06-22T10:43:54;7.88;;;4.07;;
74833;SDS011;63361;52.384;20.930;2023-06-22T10:46:20;6.33;;;3.90;;
74833;SDS011;63361;52.384;20.930;2023-06-22T10:48:45;6.47;;;3.80;;
74833;SDS011;63361;52.384;20.930;2023-06-22T10:51:10;8.83;;;4.53;;
74833;SDS011;63361;52.384;20.930;2023-06-22T10:53:35;9.70;;;3.47;;
74833;SDS011;63361;52.384;20.930;2023-06-22T10:56:00;6.90;;;3.97;;
74833;SDS011;63361;52.384;20.930;2023-06-22T10:58:26;7.30;;;4.07;;
74833;SDS011;63361;52.384;20.930;2023-06-22T11:00:51;6.43;;;4.10;;
74833;SDS011;63361;52.384;20.930;2023-06-22T11:03:16;6.00;;;3.50;;
74833;SDS011;63361;52.384;20.930;2023-06-22T11:05:42;8.33;;;4.03;;
74833;SDS011;63361;52.384;20.930;2023-06-22T11:08:07;7.27;;;3.87;;
74833;SDS011;63361;52.384;20.930;2023-06-22T11:10:32;6.93;;;4.03;;
74833;SDS011;63361;52.384;20.930;2023-06-22T11:12:57;10.23;;;4.23;;
74833;SDS011;63361;52.384;20.930;2023-06-22T11:15:23;6.47;;;3.63;;
74833;SDS011;63361;52.384;20.930;2023-06-22T11:17:48;6.32;;;3.95;;
74833;SDS011;63361;52.384;20.930;2023-06-22T11:20:13;6.03;;;3.83;;
74833;SDS011;63361;52.384;20.930;2023-06-22T11:22:39;7.37;;;4.03;;
74833;SDS011;63361;52.384;20.930;2023-06-22T11:25:04;6.37;;;3.83;;
74833;SDS011;63361;52.384;20.930;2023-06-22T11:27:29;6.43;;;4.13;;
74833;SDS011;63361;52.384;20.930;2023-06-22T11:29:55;6.85;;;4.20;;
74833;SDS011;63361;52.384;20.930;2023-06-22T11:32:20;7.50;;;4.20;;
74833;SDS011;63361;52.384;20.930;2023-06-22T11:34:46;7.07;;;4.10;;
74833;SDS011;63361;52.384;20.930;2023-06-22T11:37:11;7.32;;;4.05;;
74833;SDS011;63361;52.384;20.930;2023-06-22T11:39:37;9.43;;;3.97;;
74833;SDS011;63361;52.384;20.930;2023-06-22T11:42:02;8.30;;;4.37;;
74833;SDS011;63361;52.384;20.930;2023-06-22T11:44:27;7.63;;;4.17;;
74833;SDS011;63361;52.384;20.930;2023-06-22T11:46:52;7.77;;;4.70;;
74833;SDS011;63361;52.384;20.930;2023-06-22T11:49:18;7.53;;;4.33;;
74833;SDS011;63361;52.384;20.930;2023-06-22T11:51:43;7.60;;;4.27;;
74833;SDS011;63361;52.384;20.930;2023-06-22T11:54:08;6.77;;;4.10;;
74833;SDS011;63361;52.384;20.930;2023-06-22T11:56:33;7.80;;;4.20;;
74833;SDS011;63361;52.384;20.930;2023-06-22T11:58:58;8.70;;;4.07;;
74833;SDS011;63361;52.384;20.930;2023-06-22T12:01:24;7.07;;;4.43;;
74833;SDS011;63361;52.384;20.930;2023-06-22T12:03:49;7.40;;;4.40;;
74833;SDS011;63361;52.384;20.930;2023-06-22T12:06:14;7.50;;;4.80;;
74833;SDS011;63361;52.384;20.930;2023-06-22T12:08:39;6.27;;;4.23;;
74833;SDS011;63361;52.384;20.930;2023-06-22T12:11:04;7.33;;;4.50;;
74833;SDS011;63361;52.384;20.930;2023-06-22T12:13:29;10.43;;;4.30;;
74833;SDS011;63361;52.384;20.930;2023-06-22T12:15:55;7.47;;;4.50;;
74833;SDS011;63361;52.384;20.930;2023-06-22T12:18:20;7.57;;;4.60;;
74833;SDS011;63361;52.384;20.930;2023-06-22T12:20:46;8.00;;;4.40;;
74833;SDS011;63361;52.384;20.930;2023-06-22T12:23:12;7.90;;;4.32;;
74833;SDS011;63361;52.384;20.930;2023-06-22T12:25:37;7.10;;;4.10;;
74833;SDS011;63361;52.384;20.930;2023-06-22T12:28:02;7.80;;;4.30;;
74833;SDS011;63361;52.384;20.930;2023-06-22T12:30:29;7.60;;;4.50;;
74833;SDS011;63361;52.384;20.930;2023-06-22T12:32:54;8.37;;;4.37;;
74833;SDS011;63361;52.384;20.930;2023-06-22T12:35:19;9.27;;;4.50;;
74833;SDS011;63361;52.384;20.930;2023-06-22T12:37:45;9.13;;;4.80;;
74833;SDS011;63361;52.384;20.930;2023-06-22T12:40:10;7.23;;;4.40;;
74833;SDS011;63361;52.384;20.930;2023-06-22T12:42:35;7.10;;;4.83;;
74833;SDS011;63361;52.384;20.930;2023-06-22T12:45:00;6.80;;;4.77;;
74833;SDS011;63361;52.384;20.930;2023-06-22T12:47:26;9.20;;;4.93;;
74833;SDS011;63361;52.384;20.930;2023-06-22T12:49:51;11.23;;;4.50;;
74833;SDS011;63361;52.384;20.930;2023-06-22T12:52:16;6.17;;;4.27;;
74833;SDS011;63361;52.384;20.930;2023-06-22T12:54:41;8.93;;;5.20;;
74833;SDS011;63361;52.384;20.930;2023-06-22T12:57:06;7.77;;;4.87;;
74833;SDS011;63361;52.384;20.930;2023-06-22T12:59:32;6.00;;;4.00;;
74833;SDS011;63361;52.384;20.930;2023-06-22T13:01:57;11.00;;;4.50;;
74833;SDS011;63361;52.384;20.930;2023-06-22T13:04:22;6.70;;;4.67;;
74833;SDS011;63361;52.384;20.930;2023-06-22T13:06:47;7.97;;;4.20;;
74833;SDS011;63361;52.384;20.930;2023-06-22T13:09:17;6.53;;;4.10;;
74833;SDS011;63361;52.384;20.930;2023-06-22T13:11:42;10.20;;;4.32;;
74833;SDS011;63361;52.384;20.930;2023-06-22T13:14:08;8.37;;;4.17;;
74833;SDS011;63361;52.384;20.930;2023-06-22T13:16:33;7.03;;;4.53;;
74833;SDS011;63361;52.384;20.930;2023-06-22T13:18:58;5.50;;;4.00;;
74833;SDS011;63361;52.384;20.930;2023-06-22T13:21:23;9.27;;;4.37;;
74833;SDS011;63361;52.384;20.930;2023-06-22T13:23:48;6.07;;;4.20;;
74833;SDS011;63361;52.384;20.930;2023-06-22T13:26:14;7.53;;;4.50;;
74833;SDS011;63361;52.384;20.930;2023-06-22T13:28:39;7.30;;;4.33;;
74833;SDS011;63361;52.384;20.930;2023-06-22T13:31:04;7.30;;;4.30;;
74833;SDS011;63361;52.384;20.930;2023-06-22T13:33:29;6.90;;;4.60;;
74833;SDS011;63361;52.384;20.930;2023-06-22T13:35:55;7.63;;;4.50;;
74833;SDS011;63361;52.384;20.930;2023-06-22T13:38:20;7.97;;;4.80;;
74833;SDS011;63361;52.384;20.930;2023-06-22T13:40:45;8.50;;;4.90;;
74833;SDS011;63361;52.384;20.930;2023-06-22T13:43:12;7.10;;;5.03;;
74833;SDS011;63361;52.384;20.930;2023-06-22T13:45:37;7.63;;;5.17;;
74833;SDS011;63361;52.384;20.930;2023-06-22T13:48:03;7.20;;;4.70;;
74833;SDS011;63361;52.384;20.930;2023-06-22T13:50:28;8.13;;;5.07;;
74833;SDS011;63361;52.384;20.930;2023-06-22T13:52:54;7.15;;;4.70;;
74833;SDS011;63361;52.384;20.930;2023-06-22T13:55:20;6.93;;;4.73;;
74833;SDS011;63361;52.384;20.930;2023-06-22T13:57:46;7.73;;;4.73;;
74833;SDS011;63361;52.384;20.930;2023-06-22T14:00:11;9.93;;;4.90;;
74833;SDS011;63361;52.384;20.930;2023-06-22T14:02:37;9.40;;;5.15;;
74833;SDS011;63361;52.384;20.930;2023-06-22T14:05:02;9.20;;;5.23;;
74833;SDS011;63361;52.384;20.930;2023-06-22T14:07:28;7.50;;;5.00;;
74833;SDS011;63361;52.384;20.930;2023-06-22T14:09:53;6.77;;;4.57;;
74833;SDS011;63361;52.384;20.930;2023-06-22T14:12:18;8.90;;;4.80;;
74833;SDS011;63361;52.384;20.930;2023-06-22T14:14:44;6.55;;;4.70;;
74833;SDS011;63361;52.384;20.930;2023-06-22T14:17:09;7.17;;;4.50;;
74833;SDS011;63361;52.384;20.930;2023-06-22T14:19:35;6.17;;;4.50;;